sensor_id;sensor_type;location;lat;lon;timestamp;P1;durP1;ratioP1;P2;durP2;ratioP2
54201;SDS011;40108;53.152;5.844;2022-07-06T00:01:42;7.65;;;0.70;;
54201;SDS011;40108;53.152;5.844;2022-07-06T00:04:08;3.65;;;0.60;;
54201;SDS011;40108;53.152;5.844;2022-07-06T00:06:34;3.42;;;0.50;;
54201;SDS011;40108;53.152;5.844;2022-07-06T00:09:00;4.18;;;0.60;;
54201;SDS011;40108;53.152;5.844;2022-07-06T00:11:26;3.72;;;0.40;;
54201;SDS011;40108;53.152;5.844;2022-07-06T00:13:51;6.22;;;1.10;;
54201;SDS011;40108;53.152;5.844;2022-07-06T00:16:18;5.90;;;0.70;;
54201;SDS011;40108;53.152;5.844;2022-07-06T00:18:44;4.80;;;0.70;;
54201;SDS011;40108;53.152;5.844;2022-07-06T00:21:10;8.40;;;0.77;;
54201;SDS011;40108;53.152;5.844;2022-07-06T00:23:36;5.10;;;0.80;;
54201;SDS011;40108;53.152;5.844;2022-07-06T00:26:02;5.68;;;0.68;;
54201;SDS011;40108;53.152;5.844;2022-07-06T00:28:27;7.15;;;0.80;;
54201;SDS011;40108;53.152;5.844;2022-07-06T00:30:53;6.10;;;0.75;;
54201;SDS011;40108;53.152;5.844;2022-07-06T00:33:20;3.95;;;0.60;;
54201;SDS011;40108;53.152;5.844;2022-07-06T00:36:01;3.72;;;0.52;;
54201;SDS011;40108;53.152;5.844;2022-07-06T00:38:31;4.40;;;0.70;;
54201;SDS011;40108;53.152;5.844;2022-07-06T00:40:57;3.85;;;0.57;;
54201;SDS011;40108;53.152;5.844;2022-07-06T00:43:24;5.45;;;1.00;;
54201;SDS011;40108;53.152;5.844;2022-07-06T00:52:25;4.70;;;0.68;;
54201;SDS011;40108;53.152;5.844;2022-07-06T00:57:20;8.68;;;0.80;;
54201;SDS011;40108;53.152;5.844;2022-07-06T00:59:50;5.75;;;0.50;;
54201;SDS011;40108;53.152;5.844;2022-07-06T01:02:22;8.52;;;0.77;;
54201;SDS011;40108;53.152;5.844;2022-07-06T01:04:48;4.15;;;0.70;;
54201;SDS011;40108;53.152;5.844;2022-07-06T01:07:17;6.70;;;0.70;;
54201;SDS011;40108;53.152;5.844;2022-07-06T01:09:49;2.55;;;0.57;;
54201;SDS011;40108;53.152;5.844;2022-07-06T01:12:15;5.72;;;0.57;;
54201;SDS011;40108;53.152;5.844;2022-07-06T01:14:49;6.95;;;0.70;;
54201;SDS011;40108;53.152;5.844;2022-07-06T01:17:18;5.07;;;0.70;;
54201;SDS011;40108;53.152;5.844;2022-07-06T01:19:44;7.47;;;1.05;;
54201;SDS011;40108;53.152;5.844;2022-07-06T01:22:11;5.65;;;0.80;;
54201;SDS011;40108;53.152;5.844;2022-07-06T01:24:43;5.57;;;0.75;;
54201;SDS011;40108;53.152;5.844;2022-07-06T01:27:12;5.40;;;0.50;;
54201;SDS011;40108;53.152;5.844;2022-07-06T01:29:38;3.75;;;0.60;;
54201;SDS011;40108;53.152;5.844;2022-07-06T01:32:05;5.40;;;0.82;;
54201;SDS011;40108;53.152;5.844;2022-07-06T01:34:31;8.43;;;1.00;;
54201;SDS011;40108;53.152;5.844;2022-07-06T01:37:03;5.75;;;0.60;;
54201;SDS011;40108;53.152;5.844;2022-07-06T01:39:30;4.95;;;0.55;;
54201;SDS011;40108;53.152;5.844;2022-07-06T01:41:56;7.63;;;1.33;;
54201;SDS011;40108;53.152;5.844;2022-07-06T01:44:22;5.57;;;0.65;;
54201;SDS011;40108;53.152;5.844;2022-07-06T01:46:47;4.95;;;0.60;;
54201;SDS011;40108;53.152;5.844;2022-07-06T01:49:13;3.95;;;0.70;;
54201;SDS011;40108;53.152;5.844;2022-07-06T01:51:39;5.93;;;0.73;;
54201;SDS011;40108;53.152;5.844;2022-07-06T01:54:05;2.72;;;0.52;;
54201;SDS011;40108;53.152;5.844;2022-07-06T01:56:31;4.32;;;0.60;;
54201;SDS011;40108;53.152;5.844;2022-07-06T01:58:56;3.75;;;0.50;;
54201;SDS011;40108;53.152;5.844;2022-07-06T02:01:22;6.38;;;1.05;;
54201;SDS011;40108;53.152;5.844;2022-07-06T02:03:51;6.20;;;0.70;;
54201;SDS011;40108;53.152;5.844;2022-07-06T02:06:17;6.38;;;0.75;;
54201;SDS011;40108;53.152;5.844;2022-07-06T02:08:43;3.78;;;0.60;;
54201;SDS011;40108;53.152;5.844;2022-07-06T02:11:09;4.93;;;0.88;;
54201;SDS011;40108;53.152;5.844;2022-07-06T02:13:35;2.50;;;0.60;;
54201;SDS011;40108;53.152;5.844;2022-07-06T02:16:02;5.40;;;0.60;;
54201;SDS011;40108;53.152;5.844;2022-07-06T02:18:28;5.55;;;1.00;;
54201;SDS011;40108;53.152;5.844;2022-07-06T02:20:54;4.68;;;0.80;;
54201;SDS011;40108;53.152;5.844;2022-07-06T02:23:20;6.93;;;0.65;;
54201;SDS011;40108;53.152;5.844;2022-07-06T02:25:46;6.07;;;0.93;;
54201;SDS011;40108;53.152;5.844;2022-07-06T02:28:11;4.93;;;0.73;;
54201;SDS011;40108;53.152;5.844;2022-07-06T02:30:37;4.60;;;0.65;;
54201;SDS011;40108;53.152;5.844;2022-07-06T02:33:03;4.55;;;0.70;;
54201;SDS011;40108;53.152;5.844;2022-07-06T02:35:28;3.88;;;0.57;;
54201;SDS011;40108;53.152;5.844;2022-07-06T02:37:54;4.78;;;0.80;;
54201;SDS011;40108;53.152;5.844;2022-07-06T02:40:20;4.07;;;0.57;;
54201;SDS011;40108;53.152;5.844;2022-07-06T02:42:45;6.40;;;0.80;;
54201;SDS011;40108;53.152;5.844;2022-07-06T02:45:11;4.13;;;0.57;;
54201;SDS011;40108;53.152;5.844;2022-07-06T02:47:57;12.73;;;0.98;;
54201;SDS011;40108;53.152;5.844;2022-07-06T02:50:24;7.07;;;0.80;;
54201;SDS011;40108;53.152;5.844;2022-07-06T02:52:53;2.45;;;0.60;;
54201;SDS011;40108;53.152;5.844;2022-07-06T02:55:26;3.53;;;0.50;;
54201;SDS011;40108;53.152;5.844;2022-07-06T02:57:52;4.22;;;0.63;;
54201;SDS011;40108;53.152;5.844;2022-07-06T03:00:17;4.35;;;0.60;;
54201;SDS011;40108;53.152;5.844;2022-07-06T03:02:43;3.72;;;0.70;;
54201;SDS011;40108;53.152;5.844;2022-07-06T03:05:09;4.30;;;0.70;;
54201;SDS011;40108;53.152;5.844;2022-07-06T03:07:35;6.97;;;0.90;;
54201;SDS011;40108;53.152;5.844;2022-07-06T03:10:03;3.63;;;0.55;;
54201;SDS011;40108;53.152;5.844;2022-07-06T03:12:29;10.13;;;0.80;;
54201;SDS011;40108;53.152;5.844;2022-07-06T03:14:55;6.63;;;0.73;;
54201;SDS011;40108;53.152;5.844;2022-07-06T03:17:24;4.07;;;0.65;;
54201;SDS011;40108;53.152;5.844;2022-07-06T03:19:51;6.45;;;0.70;;
54201;SDS011;40108;53.152;5.844;2022-07-06T03:22:17;4.43;;;1.02;;
54201;SDS011;40108;53.152;5.844;2022-07-06T03:24:43;6.28;;;0.82;;
54201;SDS011;40108;53.152;5.844;2022-07-06T03:27:21;4.45;;;0.57;;
54201;SDS011;40108;53.152;5.844;2022-07-06T03:29:49;6.97;;;0.85;;
54201;SDS011;40108;53.152;5.844;2022-07-06T03:32:15;4.35;;;0.82;;
54201;SDS011;40108;53.152;5.844;2022-07-06T03:34:45;8.52;;;1.00;;
54201;SDS011;40108;53.152;5.844;2022-07-06T03:37:13;5.75;;;0.70;;
54201;SDS011;40108;53.152;5.844;2022-07-06T03:39:39;5.95;;;0.88;;
54201;SDS011;40108;53.152;5.844;2022-07-06T03:42:08;4.60;;;0.60;;
54201;SDS011;40108;53.152;5.844;2022-07-06T03:44:36;4.53;;;0.65;;
54201;SDS011;40108;53.152;5.844;2022-07-06T03:47:02;6.53;;;0.80;;
54201;SDS011;40108;53.152;5.844;2022-07-06T03:49:28;5.40;;;1.00;;
54201;SDS011;40108;53.152;5.844;2022-07-06T03:51:55;3.55;;;0.63;;
54201;SDS011;40108;53.152;5.844;2022-07-06T03:54:20;4.70;;;0.70;;
54201;SDS011;40108;53.152;5.844;2022-07-06T03:56:49;4.97;;;1.45;;
54201;SDS011;40108;53.152;5.844;2022-07-06T03:59:16;6.63;;;1.10;;
54201;SDS011;40108;53.152;5.844;2022-07-06T04:01:42;5.75;;;1.40;;
54201;SDS011;40108;53.152;5.844;2022-07-06T04:04:08;5.05;;;0.93;;
54201;SDS011;40108;53.152;5.844;2022-07-06T04:06:34;9.02;;;0.70;;
54201;SDS011;40108;53.152;5.844;2022-07-06T04:09:00;2.67;;;0.50;;
54201;SDS011;40108;53.152;5.844;2022-07-06T04:11:35;6.63;;;0.88;;
54201;SDS011;40108;53.152;5.844;2022-07-06T04:14:00;3.70;;;0.80;;
54201;SDS011;40108;53.152;5.844;2022-07-06T04:16:30;3.25;;;0.70;;
54201;SDS011;40108;53.152;5.844;2022-07-06T04:18:59;4.35;;;0.63;;
54201;SDS011;40108;53.152;5.844;2022-07-06T04:21:28;3.60;;;0.82;;
54201;SDS011;40108;53.152;5.844;2022-07-06T04:23:57;7.80;;;0.80;;
54201;SDS011;40108;53.152;5.844;2022-07-06T04:26:23;4.47;;;0.95;;
54201;SDS011;40108;53.152;5.844;2022-07-06T04:28:55;8.70;;;0.93;;
54201;SDS011;40108;53.152;5.844;2022-07-06T04:31:21;8.55;;;1.08;;
54201;SDS011;40108;53.152;5.844;2022-07-06T04:33:48;5.60;;;1.00;;
54201;SDS011;40108;53.152;5.844;2022-07-06T04:36:41;2.42;;;0.73;;
54201;SDS011;40108;53.152;5.844;2022-07-06T04:39:09;4.80;;;0.90;;
54201;SDS011;40108;53.152;5.844;2022-07-06T04:41:41;1.70;;;0.52;;
54201;SDS011;40108;53.152;5.844;2022-07-06T04:44:10;5.53;;;0.90;;
54201;SDS011;40108;53.152;5.844;2022-07-06T04:46:39;2.88;;;0.60;;
54201;SDS011;40108;53.152;5.844;2022-07-06T04:49:07;5.93;;;1.10;;
54201;SDS011;40108;53.152;5.844;2022-07-06T04:51:37;3.42;;;0.50;;
54201;SDS011;40108;53.152;5.844;2022-07-06T04:54:03;2.58;;;0.60;;
54201;SDS011;40108;53.152;5.844;2022-07-06T04:59:22;2.15;;;0.50;;
54201;SDS011;40108;53.152;5.844;2022-07-06T05:02:18;2.53;;;0.70;;
54201;SDS011;40108;53.152;5.844;2022-07-06T05:04:48;7.35;;;0.77;;
54201;SDS011;40108;53.152;5.844;2022-07-06T05:07:16;4.88;;;1.00;;
54201;SDS011;40108;53.152;5.844;2022-07-06T05:09:55;5.45;;;0.70;;
54201;SDS011;40108;53.152;5.844;2022-07-06T05:12:30;5.10;;;0.60;;
54201;SDS011;40108;53.152;5.844;2022-07-06T05:15:02;6.13;;;0.90;;
54201;SDS011;40108;53.152;5.844;2022-07-06T05:17:31;4.47;;;0.80;;
54201;SDS011;40108;53.152;5.844;2022-07-06T05:19:58;6.35;;;0.68;;
54201;SDS011;40108;53.152;5.844;2022-07-06T05:22:27;5.10;;;0.65;;
54201;SDS011;40108;53.152;5.844;2022-07-06T05:24:53;5.55;;;0.90;;
54201;SDS011;40108;53.152;5.844;2022-07-06T05:27:22;9.13;;;1.00;;
54201;SDS011;40108;53.152;5.844;2022-07-06T05:29:51;5.78;;;0.80;;
54201;SDS011;40108;53.152;5.844;2022-07-06T05:32:18;4.63;;;0.50;;
54201;SDS011;40108;53.152;5.844;2022-07-06T05:34:46;4.95;;;0.60;;
54201;SDS011;40108;53.152;5.844;2022-07-06T05:37:16;6.18;;;0.65;;
54201;SDS011;40108;53.152;5.844;2022-07-06T05:40:06;3.10;;;0.68;;
54201;SDS011;40108;53.152;5.844;2022-07-06T05:42:38;3.90;;;0.50;;
54201;SDS011;40108;53.152;5.844;2022-07-06T05:45:09;3.90;;;0.60;;
54201;SDS011;40108;53.152;5.844;2022-07-06T05:47:45;3.63;;;0.60;;
54201;SDS011;40108;53.152;5.844;2022-07-06T05:50:32;3.90;;;0.65;;
54201;SDS011;40108;53.152;5.844;2022-07-06T05:53:02;3.78;;;0.57;;
54201;SDS011;40108;53.152;5.844;2022-07-06T05:55:30;5.60;;;0.70;;
54201;SDS011;40108;53.152;5.844;2022-07-06T05:58:04;4.78;;;0.55;;
54201;SDS011;40108;53.152;5.844;2022-07-06T06:00:31;5.55;;;0.68;;
54201;SDS011;40108;53.152;5.844;2022-07-06T06:03:04;5.22;;;0.65;;
54201;SDS011;40108;53.152;5.844;2022-07-06T06:05:44;8.02;;;0.65;;
54201;SDS011;40108;53.152;5.844;2022-07-06T06:08:32;4.00;;;0.57;;
54201;SDS011;40108;53.152;5.844;2022-07-06T06:11:13;4.80;;;0.70;;
54201;SDS011;40108;53.152;5.844;2022-07-06T06:13:58;3.45;;;0.60;;
54201;SDS011;40108;53.152;5.844;2022-07-06T06:16:49;5.95;;;0.70;;
54201;SDS011;40108;53.152;5.844;2022-07-06T06:19:28;5.03;;;0.60;;
54201;SDS011;40108;53.152;5.844;2022-07-06T06:22:54;3.58;;;0.40;;
54201;SDS011;40108;53.152;5.844;2022-07-06T06:26:19;4.68;;;0.60;;
54201;SDS011;40108;53.152;5.844;2022-07-06T06:28:51;5.03;;;0.70;;
54201;SDS011;40108;53.152;5.844;2022-07-06T06:31:32;4.93;;;0.57;;
54201;SDS011;40108;53.152;5.844;2022-07-06T06:33:58;4.70;;;0.40;;
54201;SDS011;40108;53.152;5.844;2022-07-06T06:36:25;3.75;;;0.50;;
54201;SDS011;40108;53.152;5.844;2022-07-06T06:38:57;5.80;;;0.68;;
54201;SDS011;40108;53.152;5.844;2022-07-06T06:41:31;3.42;;;0.50;;
54201;SDS011;40108;53.152;5.844;2022-07-06T06:44:00;2.65;;;0.40;;
54201;SDS011;40108;53.152;5.844;2022-07-06T06:46:27;4.93;;;0.50;;
54201;SDS011;40108;53.152;5.844;2022-07-06T06:48:58;4.38;;;0.52;;
54201;SDS011;40108;53.152;5.844;2022-07-06T06:54:30;2.58;;;0.45;;
54201;SDS011;40108;53.152;5.844;2022-07-06T06:56:56;5.68;;;0.50;;
54201;SDS011;40108;53.152;5.844;2022-07-06T06:59:22;4.22;;;0.45;;
54201;SDS011;40108;53.152;5.844;2022-07-06T07:01:48;4.43;;;0.73;;
54201;SDS011;40108;53.152;5.844;2022-07-06T07:04:26;3.67;;;0.40;;
54201;SDS011;40108;53.152;5.844;2022-07-06T07:06:54;4.57;;;0.40;;
54201;SDS011;40108;53.152;5.844;2022-07-06T07:09:23;4.30;;;0.50;;
54201;SDS011;40108;53.152;5.844;2022-07-06T07:11:52;2.33;;;0.40;;
54201;SDS011;40108;53.152;5.844;2022-07-06T07:14:25;6.05;;;0.57;;
54201;SDS011;40108;53.152;5.844;2022-07-06T07:16:53;1.75;;;0.40;;
54201;SDS011;40108;53.152;5.844;2022-07-06T07:19:19;3.17;;;0.35;;
54201;SDS011;40108;53.152;5.844;2022-07-06T07:21:45;4.13;;;0.63;;
54201;SDS011;40108;53.152;5.844;2022-07-06T07:24:11;4.20;;;0.60;;
54201;SDS011;40108;53.152;5.844;2022-07-06T07:33:07;3.03;;;0.50;;
54201;SDS011;40108;53.152;5.844;2022-07-06T07:35:33;5.20;;;0.60;;
54201;SDS011;40108;53.152;5.844;2022-07-06T07:37:59;4.68;;;0.47;;
54201;SDS011;40108;53.152;5.844;2022-07-06T07:40:28;6.10;;;0.57;;
54201;SDS011;40108;53.152;5.844;2022-07-06T07:43:05;3.92;;;0.57;;
54201;SDS011;40108;53.152;5.844;2022-07-06T07:45:32;5.28;;;0.63;;
54201;SDS011;40108;53.152;5.844;2022-07-06T07:48:11;3.53;;;0.50;;
54201;SDS011;40108;53.152;5.844;2022-07-06T07:50:40;3.53;;;0.40;;
54201;SDS011;40108;53.152;5.844;2022-07-06T07:53:09;2.70;;;0.40;;
54201;SDS011;40108;53.152;5.844;2022-07-06T07:55:44;5.68;;;0.70;;
54201;SDS011;40108;53.152;5.844;2022-07-06T07:58:19;5.97;;;0.50;;
54201;SDS011;40108;53.152;5.844;2022-07-06T08:00:45;3.28;;;0.30;;
54201;SDS011;40108;53.152;5.844;2022-07-06T08:03:11;2.83;;;0.47;;
54201;SDS011;40108;53.152;5.844;2022-07-06T08:05:43;5.30;;;0.68;;
54201;SDS011;40108;53.152;5.844;2022-07-06T08:08:14;1.55;;;0.28;;
54201;SDS011;40108;53.152;5.844;2022-07-06T08:10:41;2.25;;;0.63;;
54201;SDS011;40108;53.152;5.844;2022-07-06T08:13:09;3.17;;;0.50;;
54201;SDS011;40108;53.152;5.844;2022-07-06T08:15:36;2.58;;;0.50;;
54201;SDS011;40108;53.152;5.844;2022-07-06T08:18:04;7.57;;;0.68;;
54201;SDS011;40108;53.152;5.844;2022-07-06T08:20:30;2.30;;;0.45;;
54201;SDS011;40108;53.152;5.844;2022-07-06T08:23:02;4.03;;;0.52;;
54201;SDS011;40108;53.152;5.844;2022-07-06T08:25:28;2.72;;;0.40;;
54201;SDS011;40108;53.152;5.844;2022-07-06T08:27:55;2.38;;;0.30;;
54201;SDS011;40108;53.152;5.844;2022-07-06T08:30:30;1.92;;;0.30;;
54201;SDS011;40108;53.152;5.844;2022-07-06T08:32:59;4.78;;;0.75;;
54201;SDS011;40108;53.152;5.844;2022-07-06T08:43:45;4.22;;;0.52;;
54201;SDS011;40108;53.152;5.844;2022-07-06T08:46:23;4.97;;;0.75;;
54201;SDS011;40108;53.152;5.844;2022-07-06T08:48:49;2.88;;;0.55;;
54201;SDS011;40108;53.152;5.844;2022-07-06T08:51:16;4.78;;;0.40;;
54201;SDS011;40108;53.152;5.844;2022-07-06T08:54:09;2.85;;;0.47;;
54201;SDS011;40108;53.152;5.844;2022-07-06T08:56:37;4.20;;;0.67;;
54201;SDS011;40108;53.152;5.844;2022-07-06T08:59:07;3.00;;;0.63;;
54201;SDS011;40108;53.152;5.844;2022-07-06T09:01:37;3.53;;;0.40;;
54201;SDS011;40108;53.152;5.844;2022-07-06T09:04:16;4.93;;;1.00;;
54201;SDS011;40108;53.152;5.844;2022-07-06T09:06:50;5.18;;;0.68;;
54201;SDS011;40108;53.152;5.844;2022-07-06T09:09:19;3.58;;;0.60;;
54201;SDS011;40108;53.152;5.844;2022-07-06T09:12:12;9.45;;;1.27;;
54201;SDS011;40108;53.152;5.844;2022-07-06T09:14:46;4.57;;;0.57;;
54201;SDS011;40108;53.152;5.844;2022-07-06T09:17:18;4.25;;;0.40;;
54201;SDS011;40108;53.152;5.844;2022-07-06T09:19:47;1.27;;;0.20;;
54201;SDS011;40108;53.152;5.844;2022-07-06T09:22:28;5.22;;;0.65;;
54201;SDS011;40108;53.152;5.844;2022-07-06T09:25:08;4.45;;;0.50;;
54201;SDS011;40108;53.152;5.844;2022-07-06T09:27:50;3.72;;;0.60;;
54201;SDS011;40108;53.152;5.844;2022-07-06T09:38:27;2.97;;;0.52;;
54201;SDS011;40108;53.152;5.844;2022-07-06T09:40:57;4.30;;;0.65;;
54201;SDS011;40108;53.152;5.844;2022-07-06T09:43:24;2.75;;;0.30;;
54201;SDS011;40108;53.152;5.844;2022-07-06T09:46:07;4.07;;;0.50;;
54201;SDS011;40108;53.152;5.844;2022-07-06T09:48:37;1.75;;;0.28;;
54201;SDS011;40108;53.152;5.844;2022-07-06T09:51:20;1.90;;;0.40;;
54201;SDS011;40108;53.152;5.844;2022-07-06T09:54:12;3.78;;;0.40;;
54201;SDS011;40108;53.152;5.844;2022-07-06T09:56:52;3.40;;;0.60;;
54201;SDS011;40108;53.152;5.844;2022-07-06T09:59:20;1.90;;;0.32;;
54201;SDS011;40108;53.152;5.844;2022-07-06T10:01:51;2.00;;;0.30;;
54201;SDS011;40108;53.152;5.844;2022-07-06T10:04:19;1.13;;;0.30;;
54201;SDS011;40108;53.152;5.844;2022-07-06T10:06:46;1.77;;;0.55;;
54201;SDS011;40108;53.152;5.844;2022-07-06T10:09:13;4.05;;;0.47;;
54201;SDS011;40108;53.152;5.844;2022-07-06T10:11:57;1.50;;;0.35;;
54201;SDS011;40108;53.152;5.844;2022-07-06T10:14:26;1.40;;;0.45;;
54201;SDS011;40108;53.152;5.844;2022-07-06T10:17:00;1.88;;;0.30;;
54201;SDS011;40108;53.152;5.844;2022-07-06T10:19:30;1.02;;;0.47;;
54201;SDS011;40108;53.152;5.844;2022-07-06T10:22:01;3.47;;;0.55;;
54201;SDS011;40108;53.152;5.844;2022-07-06T10:24:29;3.33;;;0.40;;
54201;SDS011;40108;53.152;5.844;2022-07-06T10:26:56;3.50;;;0.50;;
54201;SDS011;40108;53.152;5.844;2022-07-06T10:29:22;5.07;;;0.40;;
54201;SDS011;40108;53.152;5.844;2022-07-06T10:32:03;3.00;;;0.50;;
54201;SDS011;40108;53.152;5.844;2022-07-06T10:34:30;4.47;;;0.47;;
54201;SDS011;40108;53.152;5.844;2022-07-06T10:36:56;2.08;;;0.30;;
54201;SDS011;40108;53.152;5.844;2022-07-06T10:39:35;3.03;;;0.52;;
54201;SDS011;40108;53.152;5.844;2022-07-06T10:45:13;3.13;;;0.60;;
54201;SDS011;40108;53.152;5.844;2022-07-06T10:47:41;1.45;;;0.50;;
54201;SDS011;40108;53.152;5.844;2022-07-06T10:50:07;2.53;;;0.40;;
54201;SDS011;40108;53.152;5.844;2022-07-06T10:52:49;2.47;;;0.30;;
54201;SDS011;40108;53.152;5.844;2022-07-06T10:55:37;3.78;;;0.43;;
54201;SDS011;40108;53.152;5.844;2022-07-06T10:58:07;2.33;;;0.40;;
54201;SDS011;40108;53.152;5.844;2022-07-06T11:00:52;2.38;;;0.32;;
54201;SDS011;40108;53.152;5.844;2022-07-06T11:03:33;2.25;;;0.40;;
54201;SDS011;40108;53.152;5.844;2022-07-06T11:06:11;2.53;;;0.60;;
54201;SDS011;40108;53.152;5.844;2022-07-06T11:09:09;2.65;;;0.30;;
54201;SDS011;40108;53.152;5.844;2022-07-06T11:14:20;2.47;;;0.30;;
54201;SDS011;40108;53.152;5.844;2022-07-06T11:20:00;3.47;;;0.40;;
54201;SDS011;40108;53.152;5.844;2022-07-06T11:22:37;3.58;;;0.63;;
54201;SDS011;40108;53.152;5.844;2022-07-06T11:25:04;3.25;;;0.40;;
54201;SDS011;40108;53.152;5.844;2022-07-06T11:27:34;2.15;;;0.40;;
54201;SDS011;40108;53.152;5.844;2022-07-06T11:30:01;1.83;;;0.40;;
54201;SDS011;40108;53.152;5.844;2022-07-06T11:32:29;2.20;;;0.45;;
54201;SDS011;40108;53.152;5.844;2022-07-06T11:34:56;2.20;;;0.30;;
54201;SDS011;40108;53.152;5.844;2022-07-06T11:37:23;4.10;;;0.60;;
54201;SDS011;40108;53.152;5.844;2022-07-06T11:39:50;2.30;;;0.40;;
54201;SDS011;40108;53.152;5.844;2022-07-06T11:42:17;2.97;;;0.47;;
54201;SDS011;40108;53.152;5.844;2022-07-06T11:44:43;3.13;;;0.43;;
54201;SDS011;40108;53.152;5.844;2022-07-06T11:47:11;1.73;;;0.50;;
54201;SDS011;40108;53.152;5.844;2022-07-06T11:49:56;0.77;;;0.30;;
54201;SDS011;40108;53.152;5.844;2022-07-06T11:52:24;5.05;;;0.50;;
54201;SDS011;40108;53.152;5.844;2022-07-06T11:54:56;2.53;;;0.28;;
54201;SDS011;40108;53.152;5.844;2022-07-06T11:57:24;2.63;;;0.73;;
54201;SDS011;40108;53.152;5.844;2022-07-06T11:59:55;3.83;;;0.75;;
54201;SDS011;40108;53.152;5.844;2022-07-06T12:02:22;3.08;;;0.50;;
54201;SDS011;40108;53.152;5.844;2022-07-06T12:04:49;1.80;;;0.60;;
54201;SDS011;40108;53.152;5.844;2022-07-06T12:10:52;4.50;;;0.90;;
54201;SDS011;40108;53.152;5.844;2022-07-06T12:13:19;4.47;;;0.70;;
54201;SDS011;40108;53.152;5.844;2022-07-06T12:15:45;2.75;;;0.47;;
54201;SDS011;40108;53.152;5.844;2022-07-06T12:18:11;2.25;;;0.55;;
54201;SDS011;40108;53.152;5.844;2022-07-06T12:20:38;4.53;;;0.50;;
54201;SDS011;40108;53.152;5.844;2022-07-06T12:23:07;5.03;;;1.00;;
54201;SDS011;40108;53.152;5.844;2022-07-06T12:25:35;4.57;;;0.52;;
54201;SDS011;40108;53.152;5.844;2022-07-06T12:28:01;2.22;;;0.50;;
54201;SDS011;40108;53.152;5.844;2022-07-06T12:30:28;4.13;;;0.50;;
54201;SDS011;40108;53.152;5.844;2022-07-06T12:33:13;3.47;;;1.00;;
54201;SDS011;40108;53.152;5.844;2022-07-06T12:35:46;5.10;;;0.40;;
54201;SDS011;40108;53.152;5.844;2022-07-06T12:38:11;3.97;;;0.50;;
54201;SDS011;40108;53.152;5.844;2022-07-06T12:40:37;3.15;;;0.40;;
54201;SDS011;40108;53.152;5.844;2022-07-06T12:43:03;1.52;;;0.40;;
54201;SDS011;40108;53.152;5.844;2022-07-06T12:45:30;3.33;;;0.70;;
54201;SDS011;40108;53.152;5.844;2022-07-06T12:48:04;3.10;;;0.50;;
54201;SDS011;40108;53.152;5.844;2022-07-06T12:50:35;3.55;;;0.50;;
54201;SDS011;40108;53.152;5.844;2022-07-06T12:53:04;3.95;;;0.90;;
54201;SDS011;40108;53.152;5.844;2022-07-06T12:55:31;2.25;;;0.63;;
54201;SDS011;40108;53.152;5.844;2022-07-06T12:58:04;6.18;;;1.50;;
54201;SDS011;40108;53.152;5.844;2022-07-06T13:00:32;3.85;;;0.70;;
54201;SDS011;40108;53.152;5.844;2022-07-06T13:03:28;4.35;;;0.68;;
54201;SDS011;40108;53.152;5.844;2022-07-06T13:06:25;4.97;;;0.80;;
54201;SDS011;40108;53.152;5.844;2022-07-06T13:11:54;3.53;;;0.90;;
54201;SDS011;40108;53.152;5.844;2022-07-06T13:14:20;7.28;;;1.00;;
54201;SDS011;40108;53.152;5.844;2022-07-06T13:16:47;2.30;;;0.70;;
54201;SDS011;40108;53.152;5.844;2022-07-06T13:19:19;2.85;;;0.70;;
54201;SDS011;40108;53.152;5.844;2022-07-06T13:21:45;3.80;;;0.73;;
54201;SDS011;40108;53.152;5.844;2022-07-06T13:24:11;5.68;;;0.80;;
54201;SDS011;40108;53.152;5.844;2022-07-06T13:26:37;3.58;;;0.60;;
54201;SDS011;40108;53.152;5.844;2022-07-06T13:29:04;2.00;;;0.77;;
54201;SDS011;40108;53.152;5.844;2022-07-06T13:31:38;3.70;;;0.55;;
54201;SDS011;40108;53.152;5.844;2022-07-06T13:34:05;3.05;;;0.55;;
54201;SDS011;40108;53.152;5.844;2022-07-06T13:36:32;5.57;;;0.80;;
54201;SDS011;40108;53.152;5.844;2022-07-06T13:39:01;2.70;;;0.70;;
54201;SDS011;40108;53.152;5.844;2022-07-06T13:41:33;2.95;;;0.70;;
54201;SDS011;40108;53.152;5.844;2022-07-06T13:44:02;5.88;;;0.82;;
54201;SDS011;40108;53.152;5.844;2022-07-06T13:46:32;7.43;;;0.85;;
54201;SDS011;40108;53.152;5.844;2022-07-06T13:49:01;3.88;;;0.63;;
54201;SDS011;40108;53.152;5.844;2022-07-06T13:51:31;4.80;;;0.77;;
54201;SDS011;40108;53.152;5.844;2022-07-06T13:54:03;5.22;;;1.38;;
54201;SDS011;40108;53.152;5.844;2022-07-06T13:56:32;3.97;;;1.20;;
54201;SDS011;40108;53.152;5.844;2022-07-06T13:58:59;5.03;;;1.00;;
54201;SDS011;40108;53.152;5.844;2022-07-06T14:01:28;4.90;;;0.82;;
54201;SDS011;40108;53.152;5.844;2022-07-06T14:03:55;5.03;;;0.80;;
54201;SDS011;40108;53.152;5.844;2022-07-06T14:06:27;5.53;;;1.08;;
54201;SDS011;40108;53.152;5.844;2022-07-06T14:09:03;3.17;;;0.90;;
54201;SDS011;40108;53.152;5.844;2022-07-06T14:11:29;4.80;;;0.93;;
54201;SDS011;40108;53.152;5.844;2022-07-06T14:13:55;3.90;;;0.90;;
54201;SDS011;40108;53.152;5.844;2022-07-06T14:16:21;3.75;;;1.10;;
54201;SDS011;40108;53.152;5.844;2022-07-06T14:18:47;6.70;;;1.30;;
54201;SDS011;40108;53.152;5.844;2022-07-06T14:24:55;8.02;;;1.65;;
54201;SDS011;40108;53.152;5.844;2022-07-06T14:27:21;5.10;;;1.73;;
54201;SDS011;40108;53.152;5.844;2022-07-06T14:29:50;10.18;;;2.58;;
54201;SDS011;40108;53.152;5.844;2022-07-06T14:32:16;6.60;;;1.10;;
54201;SDS011;40108;53.152;5.844;2022-07-06T14:34:45;6.93;;;1.75;;
54201;SDS011;40108;53.152;5.844;2022-07-06T14:37:17;6.88;;;1.60;;
54201;SDS011;40108;53.152;5.844;2022-07-06T14:39:45;4.65;;;1.15;;
54201;SDS011;40108;53.152;5.844;2022-07-06T14:42:12;11.00;;;2.10;;
54201;SDS011;40108;53.152;5.844;2022-07-06T14:44:37;5.90;;;1.23;;
54201;SDS011;40108;53.152;5.844;2022-07-06T14:47:12;5.43;;;1.33;;
54201;SDS011;40108;53.152;5.844;2022-07-06T14:52:04;4.70;;;1.48;;
54201;SDS011;40108;53.152;5.844;2022-07-06T14:54:30;4.70;;;1.60;;
54201;SDS011;40108;53.152;5.844;2022-07-06T14:56:56;3.78;;;1.73;;
54201;SDS011;40108;53.152;5.844;2022-07-06T14:59:22;5.75;;;2.15;;
54201;SDS011;40108;53.152;5.844;2022-07-06T15:01:48;3.85;;;1.70;;
54201;SDS011;40108;53.152;5.844;2022-07-06T15:04:16;6.60;;;2.00;;
54201;SDS011;40108;53.152;5.844;2022-07-06T15:06:42;4.60;;;1.60;;
54201;SDS011;40108;53.152;5.844;2022-07-06T15:09:10;4.72;;;1.70;;
54201;SDS011;40108;53.152;5.844;2022-07-06T15:11:36;8.88;;;1.92;;
54201;SDS011;40108;53.152;5.844;2022-07-06T15:14:02;4.13;;;1.70;;
54201;SDS011;40108;53.152;5.844;2022-07-06T15:16:28;5.70;;;1.55;;
54201;SDS011;40108;53.152;5.844;2022-07-06T15:18:56;7.70;;;1.75;;
54201;SDS011;40108;53.152;5.844;2022-07-06T15:21:22;8.32;;;2.47;;
54201;SDS011;40108;53.152;5.844;2022-07-06T15:23:48;5.72;;;1.70;;
54201;SDS011;40108;53.152;5.844;2022-07-06T15:26:13;12.32;;;1.77;;
54201;SDS011;40108;53.152;5.844;2022-07-06T15:28:48;7.07;;;1.63;;
54201;SDS011;40108;53.152;5.844;2022-07-06T15:35:07;9.30;;;2.03;;
54201;SDS011;40108;53.152;5.844;2022-07-06T15:37:32;7.03;;;2.20;;
54201;SDS011;40108;53.152;5.844;2022-07-06T15:39:59;5.28;;;1.85;;
54201;SDS011;40108;53.152;5.844;2022-07-06T15:42:45;10.63;;;2.80;;
54201;SDS011;40108;53.152;5.844;2022-07-06T15:45:16;4.53;;;2.40;;
54201;SDS011;40108;53.152;5.844;2022-07-06T15:47:43;7.82;;;3.15;;
54201;SDS011;40108;53.152;5.844;2022-07-06T15:50:14;6.20;;;2.75;;
54201;SDS011;40108;53.152;5.844;2022-07-06T15:52:42;9.23;;;3.15;;
54201;SDS011;40108;53.152;5.844;2022-07-06T15:55:08;8.15;;;3.30;;
54201;SDS011;40108;53.152;5.844;2022-07-06T15:57:33;8.77;;;3.67;;
54201;SDS011;40108;53.152;5.844;2022-07-06T15:59:59;10.32;;;4.30;;
54201;SDS011;40108;53.152;5.844;2022-07-06T16:02:25;12.77;;;4.60;;
54201;SDS011;40108;53.152;5.844;2022-07-06T16:04:50;9.68;;;4.50;;
54201;SDS011;40108;53.152;5.844;2022-07-06T16:07:16;9.88;;;5.13;;
54201;SDS011;40108;53.152;5.844;2022-07-06T16:09:42;7.75;;;4.90;;